Time;durP1;ratioP1;P1;durP2;ratioP2;P2;SDS_P1;SDS_P2;PMS_P1;PMS_P2;Temp;Humidity;BMP_temperature;BMP_pressure;BME280_temperature;BME280_humidity;BME280_pressure;Samples;Min_cycle;Max_cycle;Signal;HPM_P1;HPM_P2
2023/06/21 00:01:17;;;;;;;;;;;;;;;;;;5051778;28;20011;-69
2023/06/21 00:03:44;;;;;;;;;;;;;;;;;;5034578;28;20012;-69
2023/06/21 00:06:13;;;;;;;;;;;;;;;;;;5050072;28;19928;-69
2023/06/21 00:08:40;;;;;;;;;;;;;;;;;;5048551;28;19925;-69
2023/06/21 00:11:07;;;;;;;;;;;;;;;;;;5051768;28;20011;-69
2023/06/21 00:13:33;;;;;;;;;;;;;;;;;;5051992;28;19924;-69
2023/06/21 00:16:00;;;;;;;;;;;;;;;;;;5051495;28;20011;-69
2023/06/21 00:18:27;;;;;;;;;;;;;;;;;;5061235;28;20015;-69
2023/06/21 00:20:59;;;;;;;;;;;;;;;;;;5050353;28;20003;-69
2023/06/21 00:23:26;;;;;;;;;;;;;;;;;;5050744;28;20349;-69
2023/06/21 00:25:54;;;;;;;;;;;;;;;;;;5051110;28;20287;-70
2023/06/21 00:28:21;;;;;;;;;;;;;;;;;;5049027;28;19932;-70
2023/06/21 00:30:48;;;;;;;;;;;;;;;;;;5051620;28;19972;-69
2023/06/21 00:33:16;;;;;;;;;;;;;;;;;;5051700;28;19931;-69
2023/06/21 00:35:43;;;;;;;;;;;;;;;;;;5050910;28;19972;-69
2023/06/21 00:38:12;;;;;;;;;;;;;;;;;;5046849;28;19994;-69
2023/06/21 00:40:39;;;;;;;;;;;;;;;;;;5032047;28;19929;-69
2023/06/21 00:43:06;;;;;;;;;;;;;;;;;;5034539;28;19925;-69
2023/06/21 00:45:39;;;;;;;;;;;;;;;;;;5052209;28;19978;-69
2023/06/21 00:48:06;;;;;;;;;;;;;;;;;;5053908;28;20019;-70
2023/06/21 00:50:33;;;;;;;;;;;;;;;;;;5054483;28;20003;-70
2023/06/21 00:53:00;;;;;;;;;;;;;;;;;;5055541;28;20463;-70
2023/06/21 00:55:27;;;;;;;;;;;;;;;;;;5055733;28;20000;-70
2023/06/21 00:57:57;;;;;;;;;;;;;;;;;;5054468;28;20019;-70
2023/06/21 01:00:25;;;;;;;;;;;;;;;;;;5045221;28;19956;-69
2023/06/21 01:02:52;;;;;;;;;;;;;;;;;;5052212;28;19931;-70
2023/06/21 01:05:18;;;;;;;;;;;;;;;;;;5053056;28;19925;-69
2023/06/21 01:07:45;;;;;;;;;;;;;;;;;;5054682;28;20011;-69
2023/06/21 01:10:12;;;;;;;;;;;;;;;;;;5055431;28;19928;-69
2023/06/21 01:12:40;;;;;;;;;;;;;;;;;;5055429;28;20016;-70
2023/06/21 01:15:07;;;;;;;;;;;;;;;;;;5054977;28;19925;-69
2023/06/21 01:17:34;;;;;;;;;;;;;;;;;;5054424;28;20021;-69
2023/06/21 01:20:01;;;;;;;;;;;;;;;;;;5053292;28;20016;-70
2023/06/21 01:22:28;;;;;;;;;;;;;;;;;;5054490;28;20027;-70
2023/06/21 01:24:55;;;;;;;;;;;;;;;;;;5054851;28;20015;-70
2023/06/21 01:27:22;;;;;;;;;;;;;;;;;;5057092;28;20285;-70
2023/06/21 01:29:49;;;;;;;;;;;;;;;;;;5053959;28;20380;-70
2023/06/21 01:32:16;;;;;;;;;;;;;;;;;;5054863;28;20354;-70
2023/06/21 01:34:43;;;;;;;;;;;;;;;;;;5053653;28;19931;-70
2023/06/21 01:37:10;;;;;;;;;;;;;;;;;;5054214;28;20392;-70
2023/06/21 01:39:37;;;;;;;;;;;;;;;;;;5053930;28;20447;-70
2023/06/21 01:42:05;;;;;;;;;;;;;;;;;;5053154;28;19973;-70
2023/06/21 01:44:32;;;;;;;;;;;;;;;;;;5054115;28;19924;-69
2023/06/21 01:46:59;;;;;;;;;;;;;;;;;;5051538;28;19932;-70
2023/06/21 01:49:26;;;;;;;;;;;;;;;;;;5055695;28;19948;-69
2023/06/21 01:51:53;;;;;;;;;;;;;;;;;;5053469;28;19925;-69
2023/06/21 01:54:20;;;;;;;;;;;;;;;;;;5053797;28;20024;-69
2023/06/21 01:56:47;;;;;;;;;;;;;;;;;;5052821;28;19925;-70
2023/06/21 01:59:14;;;;;;;;;;;;;;;;;;5054518;28;20016;-70
2023/06/21 02:01:41;;;;;;;;;;;;;;;;;;5059288;28;19931;-70
2023/06/21 02:04:11;;;;;;;;;;;;;;;;;;5052328;28;20363;-69
2023/06/21 02:06:39;;;;;;;;;;;;;;;;;;5053011;28;20007;-70
2023/06/21 02:09:06;;;;;;;;;;;;;;;;;;5052583;28;19986;-70
2023/06/21 02:11:33;;;;;;;;;;;;;;;;;;5052389;28;19925;-70
2023/06/21 02:14:00;;;;;;;;;;;;;;;;;;5053619;28;19932;-70
2023/06/21 02:16:27;;;;;;;;;;;;;;;;;;5054067;28;20018;-70
2023/06/21 02:18:54;;;;;;;;;;;;;;;;;;5050758;28;19928;-70
2023/06/21 02:21:22;;;;;;;;;;;;;;;;;;5046301;28;19995;-70
2023/06/21 02:23:50;;;;;;;;;;;;;;;;;;5051455;28;19925;-70
2023/06/21 02:26:17;;;;;;;;;;;;;;;;;;5033905;28;19932;-70
2023/06/21 02:28:44;;;;;;;;;;;;;;;;;;5047826;28;19971;-70
2023/06/21 02:31:11;;;;;;;;;;;;;;;;;;5053097;28;20020;-69
2023/06/21 02:33:38;;;;;;;;;;;;;;;;;;5050880;28;20027;-70
2023/06/21 02:36:05;;;;;;;;;;;;;;;;;;5052717;28;20371;-70
2023/06/21 02:38:32;;;;;;;;;;;;;;;;;;5052630;28;20004;-69
2023/06/21 02:40:59;;;;;;;;;;;;;;;;;;5049909;28;20023;-69
2023/06/21 02:43:26;;;;;;;;;;;;;;;;;;5049655;28;19932;-69
2023/06/21 02:45:54;;;;;;;;;;;;;;;;;;5051949;28;19929;-70
2023/06/21 02:48:21;;;;;;;;;;;;;;;;;;5051498;28;19925;-70
2023/06/21 02:50:48;;;;;;;;;;;;;;;;;;5051940;28;19924;-70
2023/06/21 02:53:15;;;;;;;;;;;;;;;;;;5052002;28;19924;-70
2023/06/21 02:55:42;;;;;;;;;;;;;;;;;;5051974;28;20012;-70
2023/06/21 02:58:09;;;;;;;;;;;;;;;;;;5052671;28;19931;-70
2023/06/21 03:00:36;;;;;;;;;;;;;;;;;;5051784;28;19935;-69
2023/06/21 03:03:03;;;;;;;;;;;;;;;;;;5049594;28;19929;-71
2023/06/21 03:05:30;;;;;;;;;;;;;;;;;;5050882;28;20011;-70
2023/06/21 03:08:00;;;;;;;;;;;;;;;;;;5053121;28;20388;-70
2023/06/21 03:10:27;;;;;;;;;;;;;;;;;;5052520;28;19925;-70
2023/06/21 03:12:55;;;;;;;;;;;;;;;;;;5052619;28;20019;-69
2023/06/21 03:15:22;;;;;;;;;;;;;;;;;;5051919;28;20390;-70
2023/06/21 03:17:49;;;;;;;;;;;;;;;;;;5051239;28;20362;-69
2023/06/21 03:20:16;;;;;;;;;;;;;;;;;;5050988;28;20003;-69
2023/06/21 03:22:43;;;;;;;;;;;;;;;;;;5052053;28;20004;-69
2023/06/21 03:25:10;;;;;;;;;;;;;;;;;;5060888;28;20011;-69
2023/06/21 03:27:37;;;;;;;;;;;;;;;;;;5062657;28;19932;-69
2023/06/21 03:30:04;;;;;;;;;;;;;;;;;;5051908;28;20011;-69
2023/06/21 03:32:31;;;;;;;;;;;;;;;;;;5050307;28;20031;-69
2023/06/21 03:34:59;;;;;;;;;;;;;;;;;;5052079;28;19925;-69
2023/06/21 03:37:26;;;;;;;;;;;;;;;;;;5051794;28;19925;-69
2023/06/21 03:39:52;;;;;;;;;;;;;;;;;;5051081;28;20024;-69
2023/06/21 03:42:19;;;;;;;;;;;;;;;;;;5052012;28;20606;-69
2023/06/21 03:44:46;;;;;;;;;;;;;;;;;;5052686;28;20011;-71
2023/06/21 03:47:13;;;;;;;;;;;;;;;;;;5052383;28;19933;-70
2023/06/21 03:49:40;;;;;;;;;;;;;;;;;;5050509;28;19924;-70
2023/06/21 03:52:07;;;;;;;;;;;;;;;;;;5051528;28;19951;-70
2023/06/21 03:54:34;;;;;;;;;;;;;;;;;;5051105;28;20130;-70
2023/06/21 03:57:01;;;;;;;;;;;;;;;;;;5050818;28;20012;-70
2023/06/21 03:59:28;;;;;;;;;;;;;;;;;;5062445;28;19967;-70
2023/06/21 04:01:55;;;;;;;;;;;;;;;;;;5052591;28;20023;-70
2023/06/21 04:04:24;;;;;;;;;;;;;;;;;;5050971;28;20016;-69
2023/06/21 04:06:51;;;;;;;;;;;;;;;;;;5051659;28;20342;-69
2023/06/21 04:09:18;;;;;;;;;;;;;;;;;;5051505;28;20406;-69
2023/06/21 04:11:45;;;;;;;;;;;;;;;;;;5047956;28;19932;-70
2023/06/21 04:14:14;;;;;;;;;;;;;;;;;;5051782;28;19971;-70
2023/06/21 04:16:41;;;;;;;;;;;;;;;;;;5064484;28;19925;-70
2023/06/21 04:19:08;;;;;;;;;;;;;;;;;;5059942;28;19925;-70
2023/06/21 04:21:35;;;;;;;;;;;;;;;;;;5052146;28;19968;-70
2023/06/21 04:24:02;;;;;;;;;;;;;;;;;;5054038;28;19925;-70
2023/06/21 04:26:29;;;;;;;;;;;;;;;;;;5055406;28;19925;-70
2023/06/21 04:29:00;;;;;;;;;;;;;;;;;;5055217;28;20009;-70
2023/06/21 04:31:27;;;;;;;;;;;;;;;;;;5054980;28;19947;-70
2023/06/21 04:33:54;;;;;;;;;;;;;;;;;;5061653;28;20027;-71
2023/06/21 04:36:21;;;;;;;;;;;;;;;;;;5054899;28;19931;-70
2023/06/21 04:38:48;;;;;;;;;;;;;;;;;;5055873;28;19931;-70
2023/06/21 04:41:15;;;;;;;;;;;;;;;;;;5049760;28;19929;-70
2023/06/21 04:43:42;;;;;;;;;;;;;;;;;;5053605;28;20011;-70
2023/06/21 04:46:09;;;;;;;;;;;;;;;;;;5050006;28;19931;-70
2023/06/21 04:48:37;;;;;;;;;;;;;;;;;;5058599;28;20040;-70
2023/06/21 04:51:05;;;;;;;;;;;;;;;;;;5052429;28;19925;-69
2023/06/21 04:53:32;;;;;;;;;;;;;;;;;;5053160;28;19928;-70
2023/06/21 04:55:59;;;;;;;;;;;;;;;;;;5054830;28;19924;-70
2023/06/21 04:58:26;;;;;;;;;;;;;;;;;;5051447;28;20011;-70
2023/06/21 05:00:53;;;;;;;;;;;;;;;;;;5053898;28;20011;-69
2023/06/21 05:03:20;;;;;;;;;;;;;;;;;;5051634;28;20016;-71
2023/06/21 05:05:47;;;;;;;;;;;;;;;;;;5034743;28;20439;-71
2023/06/21 05:08:14;;;;;;;;;;;;;;;;;;5056016;28;19932;-72
2023/06/21 05:10:41;;;;;;;;;;;;;;;;;;5051506;28;20712;-71
2023/06/21 05:13:08;;;;;;;;;;;;;;;;;;5052437;28;20335;-71
2023/06/21 05:15:35;;;;;;;;;;;;;;;;;;5055171;28;20024;-71
2023/06/21 05:18:02;;;;;;;;;;;;;;;;;;5053780;28;19933;-71
2023/06/21 05:20:29;;;;;;;;;;;;;;;;;;5057242;28;20020;-71
2023/06/21 05:22:56;;;;;;;;;;;;;;;;;;5053323;28;20007;-71
2023/06/21 05:25:23;;;;;;;;;;;;;;;;;;5052446;28;19929;-71
2023/06/21 05:27:50;;;;;;;;;;;;;;;;;;5051409;28;19968;-71
2023/06/21 05:30:18;;;;;;;;;;;;;;;;;;5052933;28;19978;-71
2023/06/21 05:32:45;;;;;;;;;;;;;;;;;;5056791;28;19932;-71
2023/06/21 05:35:12;;;;;;;;;;;;;;;;;;5049926;28;20020;-72
2023/06/21 05:37:39;;;;;;;;;;;;;;;;;;5055265;28;20446;-71
2023/06/21 05:40:09;;;;;;;;;;;;;;;;;;5070600;28;20456;-71
2023/06/21 05:42:36;;;;;;;;;;;;;;;;;;5050040;28;19939;-70
2023/06/21 05:45:03;;;;;;;;;;;;;;;;;;5051425;28;19964;-71
2023/06/21 05:47:29;;;;;;;;;;;;;;;;;;5047974;28;19968;-71
2023/06/21 05:49:56;;;;;;;;;;;;;;;;;;5052002;28;20073;-71
2023/06/21 05:52:24;;;;;;;;;;;;;;;;;;5056995;28;19933;-70
2023/06/21 05:54:51;;;;;;;;;;;;;;;;;;5051143;28;19931;-71
2023/06/21 05:57:17;;;;;;;;;;;;;;;;;;5046607;28;19980;-69
2023/06/21 05:59:44;;;;;;;;;;;;;;;;;;5050905;28;19979;-68
2023/06/21 06:02:11;;;;;;;;;;;;;;;;;;5047677;28;20023;-69
2023/06/21 06:04:39;;;;;;;;;;;;;;;;;;5054862;28;19929;-69
2023/06/21 06:07:06;;;;;;;;;;;;;;;;;;5050589;28;19951;-69
2023/06/21 06:09:35;;;;;;;;;;;;;;;;;;5051334;28;20086;-70
2023/06/21 06:12:02;;;;;;;;;;;;;;;;;;5051106;28;19925;-70
2023/06/21 06:14:29;;;;;;;;;;;;;;;;;;5049947;28;19929;-69
2023/06/21 06:16:56;;;;;;;;;;;;;;;;;;5049237;28;20311;-69
2023/06/21 06:19:23;;;;;;;;;;;;;;;;;;5050865;28;20082;-69
2023/06/21 06:21:50;;;;;;;;;;;;;;;;;;5050595;28;20070;-70
2023/06/21 06:24:17;;;;;;;;;;;;;;;;;;5050676;28;19972;-69
2023/06/21 06:26:44;;;;;;;;;;;;;;;;;;5049003;28;19933;-72
2023/06/21 06:29:11;;;;;;;;;;;;;;;;;;5064522;28;19955;-71
2023/06/21 06:31:37;;;;;;;;;;;;;;;;;;5053672;28;19963;-71
2023/06/21 06:34:04;;;;;;;;;;;;;;;;;;5048868;28;20388;-71
2023/06/21 06:36:31;;;;;;;;;;;;;;;;;;5048252;28;20035;-71
2023/06/21 06:38:58;;;;;;;;;;;;;;;;;;5038781;28;19932;-71
2023/06/21 06:41:27;;;;;;;;;;;;;;;;;;5049671;28;20004;-70
2023/06/21 06:43:54;;;;;;;;;;;;;;;;;;5044377;28;19940;-71
2023/06/21 06:46:21;;;;;;;;;;;;;;;;;;5050314;28;19971;-73
2023/06/21 06:48:48;;;;;;;;;;;;;;;;;;5051488;28;19935;-70
2023/06/21 06:51:15;;;;;;;;;;;;;;;;;;5051535;28;20015;-70
2023/06/21 06:53:42;;;;;;;;;;;;;;;;;;5049658;28;20015;-70
2023/06/21 06:56:09;;;;;;;;;;;;;;;;;;5044331;28;19925;-71
2023/06/21 06:58:36;;;;;;;;;;;;;;;;;;5050865;28;20332;-70
2023/06/21 07:01:05;;;;;;;;;;;;;;;;;;5053656;28;19924;-72
2023/06/21 07:03:32;;;;;;;;;;;;;;;;;;5061349;28;19924;-71
2023/06/21 07:05:59;;;;;;;;;;;;;;;;;;5048173;28;19925;-71
2023/06/21 07:08:26;;;;;;;;;;;;;;;;;;5050975;28;19979;-70
2023/06/21 07:10:53;;;;;;;;;;;;;;;;;;5049903;28;19967;-71
2023/06/21 07:13:21;;;;;;;;;;;;;;;;;;5049843;28;19925;-71
2023/06/21 07:15:48;;;;;;;;;;;;;;;;;;5051843;28;19947;-71
2023/06/21 07:18:15;;;;;;;;;;;;;;;;;;5049116;28;19939;-71
2023/06/21 07:20:42;;;;;;;;;;;;;;;;;;5049273;28;20033;-71
2023/06/21 07:23:09;;;;;;;;;;;;;;;;;;5051207;28;20054;-71
2023/06/21 07:25:37;;;;;;;;;;;;;;;;;;5049028;28;20257;-72
2023/06/21 07:28:04;;;;;;;;;;;;;;;;;;5049542;28;19925;-71
2023/06/21 07:30:31;;;;;;;;;;;;;;;;;;5050080;28;19979;-71
2023/06/21 07:32:57;;;;;;;;;;;;;;;;;;5049671;28;20023;-71
2023/06/21 07:35:24;;;;;;;;;;;;;;;;;;5049942;28;19931;-72
2023/06/21 07:37:51;;;;;;;;;;;;;;;;;;5046312;28;19932;-71
2023/06/21 07:40:18;;;;;;;;;;;;;;;;;;5050160;28;19932;-71
2023/06/21 07:42:45;;;;;;;;;;;;;;;;;;5046718;28;19955;-70
2023/06/21 07:45:12;;;;;;;;;;;;;;;;;;5049424;28;19975;-73
2023/06/21 07:47:41;;;;;;;;;;;;;;;;;;5050479;28;19967;-74
2023/06/21 07:50:08;;;;;;;;;;;;;;;;;;5049482;28;19979;-74
2023/06/21 07:52:35;;;;;;;;;;;;;;;;;;5047146;28;19932;-74
2023/06/21 07:55:05;;;;;;;;;;;;;;;;;;5049587;28;20396;-74
2023/06/21 07:57:32;;;;;;;;;;;;;;;;;;5045155;28;19929;-73
2023/06/21 08:00:08;;;;;;;;;;;;;;;;;;5048527;28;19925;-73
2023/06/21 08:02:35;;;;;;;;;;;;;;;;;;5048130;28;19924;-74
2023/06/21 08:05:02;;;;;;;;;;;;;;;;;;5050583;28;20082;-73
2023/06/21 08:07:29;;;;;;;;;;;;;;;;;;5043894;28;20007;-72
2023/06/21 08:09:56;;;;;;;;;;;;;;;;;;5050474;28;20336;-73
2023/06/21 08:12:23;;;;;;;;;;;;;;;;;;5049378;28;20664;-71
2023/06/21 08:14:50;;;;;;;;;;;;;;;;;;5049597;28;19925;-70
2023/06/21 08:17:17;;;;;;;;;;;;;;;;;;5049605;28;19937;-71
2023/06/21 08:19:44;;;;;;;;;;;;;;;;;;5048593;28;19994;-71
2023/06/21 08:22:11;;;;;;;;;;;;;;;;;;5043623;28;19940;-71
2023/06/21 08:24:38;;;;;;;;;;;;;;;;;;5042802;28;19986;-74
2023/06/21 08:27:05;;;;;;;;;;;;;;;;;;5051049;28;19925;-72
2023/06/21 08:29:32;;;;;;;;;;;;;;;;;;5051077;28;20016;-72
2023/06/21 08:31:59;;;;;;;;;;;;;;;;;;5051766;28;20015;-71
2023/06/21 08:34:26;;;;;;;;;;;;;;;;;;5049407;28;19932;-74
2023/06/21 08:36:54;;;;;;;;;;;;;;;;;;5041677;28;20012;-74
2023/06/21 08:39:21;;;;;;;;;;;;;;;;;;5040416;28;19932;-74
2023/06/21 08:41:48;;;;;;;;;;;;;;;;;;5051057;28;20450;-74
2023/06/21 08:44:15;;;;;;;;;;;;;;;;;;5051112;28;19982;-72
2023/06/21 08:46:42;;;;;;;;;;;;;;;;;;5047637;28;20024;-72
2023/06/21 08:49:08;;;;;;;;;;;;;;;;;;5049389;28;20019;-73
2023/06/21 08:51:36;;;;;;;;;;;;;;;;;;5051555;28;20019;-72
2023/06/21 08:54:03;;;;;;;;;;;;;;;;;;5050862;28;19933;-73
2023/06/21 08:56:30;;;;;;;;;;;;;;;;;;5051117;28;19975;-73
2023/06/21 08:58:57;;;;;;;;;;;;;;;;;;5050339;28;20027;-72
2023/06/21 09:01:24;;;;;;;;;;;;;;;;;;5051382;28;19935;-73
2023/06/21 09:03:51;;;;;;;;;;;;;;;;;;5047334;28;20012;-73
2023/06/21 09:06:18;;;;;;;;;;;;;;;;;;5050389;28;19932;-74
2023/06/21 09:08:45;;;;;;;;;;;;;;;;;;5047807;28;20015;-73
2023/06/21 09:11:12;;;;;;;;;;;;;;;;;;5053144;28;19935;-73
2023/06/21 09:13:39;;;;;;;;;;;;;;;;;;5045663;28;20029;-73
2023/06/21 09:16:06;;;;;;;;;;;;;;;;;;5053260;28;20367;-73
2023/06/21 09:18:35;;;;;;;;;;;;;;;;;;5052707;28;19987;-72
2023/06/21 09:21:02;;;;;;;;;;;;;;;;;;5053737;28;20364;-73
2023/06/21 09:23:29;;;;;;;;;;;;;;;;;;5054219;28;19964;-74
2023/06/21 09:25:56;;;;;;;;;;;;;;;;;;5048207;28;19925;-73
2023/06/21 09:28:23;;;;;;;;;;;;;;;;;;5053158;28;19931;-74
2023/06/21 09:30:50;;;;;;;;;;;;;;;;;;5050850;28;19925;-74
2023/06/21 09:33:17;;;;;;;;;;;;;;;;;;5053665;28;20015;-73
2023/06/21 09:35:45;;;;;;;;;;;;;;;;;;5050909;28;20027;-74
2023/06/21 09:38:12;;;;;;;;;;;;;;;;;;5052425;28;19936;-74
2023/06/21 09:40:39;;;;;;;;;;;;;;;;;;5049030;28;20015;-74
2023/06/21 09:43:06;;;;;;;;;;;;;;;;;;5053067;28;19924;-74
2023/06/21 09:45:33;;;;;;;;;;;;;;;;;;5052995;28;19932;-73
2023/06/21 09:48:00;;;;;;;;;;;;;;;;;;5054045;28;20003;-73
2023/06/21 09:50:27;;;;;;;;;;;;;;;;;;5046657;28;20273;-73
2023/06/21 09:52:54;;;;;;;;;;;;;;;;;;5053480;28;19925;-73
2023/06/21 09:55:21;;;;;;;;;;;;;;;;;;5053573;28;19960;-73
2023/06/21 09:57:48;;;;;;;;;;;;;;;;;;5053152;28;20011;-74
2023/06/21 10:00:21;;;;;;;;;;;;;;;;;;5049587;28;19925;-73
2023/06/21 10:02:48;;;;;;;;;;;;;;;;;;5053155;28;19925;-73
2023/06/21 10:05:15;;;;;;;;;;;;;;;;;;5051482;28;20051;-74
2023/06/21 10:07:42;;;;;;;;;;;;;;;;;;5052344;28;19929;-73
2023/06/21 10:10:09;;;;;;;;;;;;;;;;;;5051625;28;20610;-74
2023/06/21 10:12:36;;;;;;;;;;;;;;;;;;5060391;28;20025;-74
2023/06/21 10:15:03;;;;;;;;;;;;;;;;;;5046918;28;20309;-74
2023/06/21 10:17:30;;;;;;;;;;;;;;;;;;5045058;28;19925;-73
2023/06/21 10:19:57;;;;;;;;;;;;;;;;;;5058886;28;19964;-73
2023/06/21 10:22:24;;;;;;;;;;;;;;;;;;5063677;28;19940;-73
2023/06/21 10:24:51;;;;;;;;;;;;;;;;;;5050796;28;20356;-74
2023/06/21 10:27:18;;;;;;;;;;;;;;;;;;5059958;28;19929;-74
2023/06/21 10:29:46;;;;;;;;;;;;;;;;;;5051481;28;19971;-72
2023/06/21 10:32:13;;;;;;;;;;;;;;;;;;5048103;28;20353;-72
2023/06/21 10:34:39;;;;;;;;;;;;;;;;;;5042277;28;19960;-73
2023/06/21 10:37:06;;;;;;;;;;;;;;;;;;5051098;28;20007;-74
2023/06/21 10:39:33;;;;;;;;;;;;;;;;;;5048451;28;19971;-74
2023/06/21 10:42:00;;;;;;;;;;;;;;;;;;5048194;28;19925;-73
2023/06/21 10:44:27;;;;;;;;;;;;;;;;;;5052169;28;19925;-73
2023/06/21 10:46:54;;;;;;;;;;;;;;;;;;5051887;28;19968;-74
2023/06/21 10:49:21;;;;;;;;;;;;;;;;;;5047397;28;20048;-71
2023/06/21 10:51:49;;;;;;;;;;;;;;;;;;5051384;28;20459;-73
2023/06/21 10:54:16;;;;;;;;;;;;;;;;;;5052454;28;19932;-72
2023/06/21 10:56:43;;;;;;;;;;;;;;;;;;5048403;28;20011;-70
2023/06/21 10:59:10;;;;;;;;;;;;;;;;;;5048409;28;19924;-73
2023/06/21 11:04:21;;;;;;;;;;;;;;;;;;5035460;28;19925;-72
2023/06/21 11:06:48;;;;;;;;;;;;;;;;;;5048165;28;20388;-72
2023/06/21 11:09:16;;;;;;;;;;;;;;;;;;5049539;28;20474;-72
2023/06/21 11:11:43;;;;;;;;;;;;;;;;;;5053609;28;19925;-73
2023/06/21 11:14:10;;;;;;;;;;;;;;;;;;5047721;28;20477;-73
2023/06/21 11:16:39;;;;;;;;;;;;;;;;;;5051024;28;19955;-74
2023/06/21 11:19:06;;;;;;;;;;;;;;;;;;5048392;28;19972;-73
2023/06/21 11:21:33;;;;;;;;;;;;;;;;;;5049826;28;20043;-73
2023/06/21 11:24:00;;;;;;;;;;;;;;;;;;5046206;28;20011;-73
2023/06/21 11:26:27;;;;;;;;;;;;;;;;;;5050242;28;20464;-73
2023/06/21 11:28:54;;;;;;;;;;;;;;;;;;5052768;28;19991;-74
2023/06/21 11:31:21;;;;;;;;;;;;;;;;;;5049985;28;20024;-73
2023/06/21 11:33:48;;;;;;;;;;;;;;;;;;5050417;28;19976;-73
2023/06/21 11:36:16;;;;;;;;;;;;;;;;;;5058860;28;19925;-74
2023/06/21 11:38:43;;;;;;;;;;;;;;;;;;5045622;28;19925;-73
2023/06/21 11:41:10;;;;;;;;;;;;;;;;;;5049819;28;19925;-74
2023/06/21 11:43:37;;;;;;;;;;;;;;;;;;5039121;28;20391;-74
2023/06/21 11:46:04;;;;;;;;;;;;;;;;;;5050763;28;20020;-74
2023/06/21 11:48:31;;;;;;;;;;;;;;;;;;5050369;28;20013;-73
2023/06/21 11:50:58;;;;;;;;;;;;;;;;;;5051560;28;19928;-73
2023/06/21 11:53:26;;;;;;;;;;;;;;;;;;5050539;28;20091;-73
2023/06/21 11:55:53;;;;;;;;;;;;;;;;;;5051441;28;19978;-73
2023/06/21 11:58:20;;;;;;;;;;;;;;;;;;5048994;28;19925;-73
2023/06/21 12:00:47;;;;;;;;;;;;;;;;;;5048734;28;20023;-73
2023/06/21 12:03:14;;;;;;;;;;;;;;;;;;5040160;28;19979;-72
2023/06/21 12:05:41;;;;;;;;;;;;;;;;;;5046241;28;19979;-73
2023/06/21 12:08:09;;;;;;;;;;;;;;;;;;5048158;28;19924;-75
2023/06/21 12:10:36;;;;;;;;;;;;;;;;;;5050852;28;20319;-73
2023/06/21 12:13:03;;;;;;;;;;;;;;;;;;5048609;28;19932;-72
2023/06/21 12:15:30;;;;;;;;;;;;;;;;;;5049191;28;19925;-72
2023/06/21 12:17:57;;;;;;;;;;;;;;;;;;5049380;28;19971;-73
2023/06/21 12:20:24;;;;;;;;;;;;;;;;;;5043784;28;19932;-72
2023/06/21 12:22:51;;;;;;;;;;;;;;;;;;5049690;28;20023;-71
2023/06/21 12:25:19;;;;;;;;;;;;;;;;;;5046978;28;19928;-73
2023/06/21 12:27:46;;;;;;;;;;;;;;;;;;5033825;28;19928;-73
2023/06/21 12:30:13;;;;;;;;;;;;;;;;;;5041858;28;19933;-72
2023/06/21 12:32:42;;;;;;;;;;;;;;;;;;5043130;28;20024;-72
2023/06/21 12:35:09;;;;;;;;;;;;;;;;;;5042476;28;19982;-73
2023/06/21 12:37:36;;;;;;;;;;;;;;;;;;5038473;28;20020;-73
2023/06/21 12:40:05;;;;;;;;;;;;;;;;;;5041004;28;19925;-72
2023/06/21 12:42:32;;;;;;;;;;;;;;;;;;5045668;28;19925;-72
2023/06/21 12:44:59;;;;;;;;;;;;;;;;;;5042223;28;19986;-72
2023/06/21 12:47:26;;;;;;;;;;;;;;;;;;5050961;28;19925;-72
2023/06/21 12:49:53;;;;;;;;;;;;;;;;;;5043212;28;20450;-73
2023/06/21 12:52:20;;;;;;;;;;;;;;;;;;5042542;28;20347;-71
2023/06/21 12:54:47;;;;;;;;;;;;;;;;;;5050930;28;20027;-73
2023/06/21 12:57:14;;;;;;;;;;;;;;;;;;5049384;28;19940;-73
2023/06/21 12:59:41;;;;;;;;;;;;;;;;;;5045504;28;20016;-73
2023/06/21 13:02:09;;;;;;;;;;;;;;;;;;5046679;28;19925;-73
2023/06/21 13:04:35;;;;;;;;;;;;;;;;;;5059541;28;19925;-71
2023/06/21 13:07:02;;;;;;;;;;;;;;;;;;5050652;28;19924;-71
2023/06/21 13:09:34;;;;;;;;;;;;;;;;;;5047247;28;19939;-72
2023/06/21 13:12:01;;;;;;;;;;;;;;;;;;5050057;28;19935;-73
2023/06/21 13:14:28;;;;;;;;;;;;;;;;;;5041172;28;20471;-73
2023/06/21 13:16:55;;;;;;;;;;;;;;;;;;5052786;28;20340;-72
2023/06/21 13:19:25;;;;;;;;;;;;;;;;;;5059276;28;20039;-71
2023/06/21 13:21:52;;;;;;;;;;;;;;;;;;5059409;28;19994;-72
2023/06/21 13:24:19;;;;;;;;;;;;;;;;;;5046250;28;20015;-72
2023/06/21 13:26:45;;;;;;;;;;;;;;;;;;5050030;28;19931;-72
2023/06/21 13:29:12;;;;;;;;;;;;;;;;;;5053365;28;19933;-73
2023/06/21 13:31:39;;;;;;;;;;;;;;;;;;5046999;28;20323;-73
2023/06/21 13:34:06;;;;;;;;;;;;;;;;;;5052198;28;20020;-73
2023/06/21 13:36:33;;;;;;;;;;;;;;;;;;5054730;28;19925;-73
2023/06/21 13:39:00;;;;;;;;;;;;;;;;;;5052671;28;19928;-72
2023/06/21 13:41:27;;;;;;;;;;;;;;;;;;5050299;28;19967;-73
2023/06/21 13:43:54;;;;;;;;;;;;;;;;;;5047849;28;19925;-72
2023/06/21 13:46:21;;;;;;;;;;;;;;;;;;5042402;28;19931;-72
2023/06/21 13:48:48;;;;;;;;;;;;;;;;;;5053560;28;20392;-72
2023/06/21 13:51:15;;;;;;;;;;;;;;;;;;5051828;28;19960;-73
2023/06/21 13:53:44;;;;;;;;;;;;;;;;;;5053339;28;19967;-73
2023/06/21 13:56:11;;;;;;;;;;;;;;;;;;5052596;28;20024;-73
2023/06/21 13:58:38;;;;;;;;;;;;;;;;;;5052722;28;19925;-72
2023/06/21 14:01:07;;;;;;;;;;;;;;;;;;5051598;28;20295;-72
2023/06/21 14:03:34;;;;;;;;;;;;;;;;;;5036785;28;20002;-73
2023/06/21 14:06:01;;;;;;;;;;;;;;;;;;5051895;28;20349;-72
2023/06/21 14:08:28;;;;;;;;;;;;;;;;;;5064043;28;19932;-73
2023/06/21 14:10:55;;;;;;;;;;;;;;;;;;5052352;28;19971;-72
2023/06/21 14:13:22;;;;;;;;;;;;;;;;;;5052097;28;20472;-72
2023/06/21 14:15:49;;;;;;;;;;;;;;;;;;5052358;28;20007;-73
2023/06/21 14:18:16;;;;;;;;;;;;;;;;;;5052619;28;20003;-73
2023/06/21 14:20:43;;;;;;;;;;;;;;;;;;5052363;28;20009;-73
2023/06/21 14:23:10;;;;;;;;;;;;;;;;;;5049512;28;19925;-73
2023/06/21 14:25:38;;;;;;;;;;;;;;;;;;5049063;28;20012;-71
2023/06/21 14:28:05;;;;;;;;;;;;;;;;;;5049795;28;19924;-73
2023/06/21 14:30:32;;;;;;;;;;;;;;;;;;5048096;28;19933;-72
2023/06/21 14:33:00;;;;;;;;;;;;;;;;;;5051162;28;19971;-73
2023/06/21 14:35:27;;;;;;;;;;;;;;;;;;5047320;28;19978;-72
2023/06/21 14:37:54;;;;;;;;;;;;;;;;;;5048335;28;20180;-71
2023/06/21 14:40:21;;;;;;;;;;;;;;;;;;5043129;28;20629;-72
2023/06/21 14:42:49;;;;;;;;;;;;;;;;;;5046196;28;19925;-71
2023/06/21 14:45:20;;;;;;;;;;;;;;;;;;5049810;28;20011;-73
2023/06/21 14:47:47;;;;;;;;;;;;;;;;;;5048437;28;19929;-72
2023/06/21 14:50:14;;;;;;;;;;;;;;;;;;5048250;28;20342;-73
2023/06/21 14:52:40;;;;;;;;;;;;;;;;;;5049958;28;20023;-73
2023/06/21 14:55:07;;;;;;;;;;;;;;;;;;5040642;28;19926;-72
2023/06/21 14:57:36;;;;;;;;;;;;;;;;;;5046987;28;19929;-72
2023/06/21 15:00:03;;;;;;;;;;;;;;;;;;5050880;28;19951;-73
2023/06/21 15:02:32;;;;;;;;;;;;;;;;;;5041697;28;20241;-73
2023/06/21 15:04:59;;;;;;;;;;;;;;;;;;5041872;28;20012;-73
2023/06/21 15:07:26;;;;;;;;;;;;;;;;;;5046630;28;19968;-72
2023/06/21 15:09:53;;;;;;;;;;;;;;;;;;5041036;28;20004;-72
2023/06/21 15:12:20;;;;;;;;;;;;;;;;;;5035961;28;19932;-73
2023/06/21 15:14:48;;;;;;;;;;;;;;;;;;5050318;28;19925;-73
2023/06/21 15:17:14;;;;;;;;;;;;;;;;;;5032208;28;19976;-73
2023/06/21 15:19:42;;;;;;;;;;;;;;;;;;5045604;28;19983;-74
2023/06/21 15:22:09;;;;;;;;;;;;;;;;;;5041617;28;19986;-73
2023/06/21 15:24:36;;;;;;;;;;;;;;;;;;5039440;28;20024;-72
2023/06/21 15:27:03;;;;;;;;;;;;;;;;;;5046130;28;19982;-73
2023/06/21 15:29:30;;;;;;;;;;;;;;;;;;5042428;28;19975;-74
2023/06/21 15:31:57;;;;;;;;;;;;;;;;;;5034970;28;19987;-73
2023/06/21 15:34:24;;;;;;;;;;;;;;;;;;5041817;28;19968;-74
2023/06/21 15:36:51;;;;;;;;;;;;;;;;;;5038102;28;20012;-74
2023/06/21 15:39:18;;;;;;;;;;;;;;;;;;5035399;28;19972;-74
2023/06/21 15:41:45;;;;;;;;;;;;;;;;;;5040711;28;20024;-73
2023/06/21 15:44:13;;;;;;;;;;;;;;;;;;5045881;28;20015;-73
2023/06/21 15:46:40;;;;;;;;;;;;;;;;;;5042673;28;20091;-74
2023/06/21 15:49:07;;;;;;;;;;;;;;;;;;5039194;28;19970;-73
2023/06/21 15:51:34;;;;;;;;;;;;;;;;;;5043940;28;19987;-72
2023/06/21 15:54:01;;;;;;;;;;;;;;;;;;5046667;28;19972;-73
2023/06/21 15:56:28;;;;;;;;;;;;;;;;;;5043939;28;20024;-73
2023/06/21 15:58:55;;;;;;;;;;;;;;;;;;5048686;28;20399;-72
2023/06/21 16:01:22;;;;;;;;;;;;;;;;;;5033257;28;20024;-72
2023/06/21 16:03:49;;;;;;;;;;;;;;;;;;5032082;28;19925;-71
2023/06/21 16:06:16;;;;;;;;;;;;;;;;;;5047315;28;19933;-72
2023/06/21 16:08:43;;;;;;;;;;;;;;;;;;5040756;28;20391;-72
2023/06/21 16:11:11;;;;;;;;;;;;;;;;;;5046267;28;19929;-71
2023/06/21 16:13:38;;;;;;;;;;;;;;;;;;5043685;28;20012;-72
2023/06/21 16:16:05;;;;;;;;;;;;;;;;;;5045513;28;19924;-72
2023/06/21 16:18:31;;;;;;;;;;;;;;;;;;5043455;28;19944;-72
2023/06/21 16:20:59;;;;;;;;;;;;;;;;;;5040636;28;19959;-72
2023/06/21 16:23:26;;;;;;;;;;;;;;;;;;5040496;28;19980;-70
2023/06/21 16:25:53;;;;;;;;;;;;;;;;;;5044580;28;19990;-72
2023/06/21 16:28:20;;;;;;;;;;;;;;;;;;5049355;28;19924;-72
2023/06/21 16:30:47;;;;;;;;;;;;;;;;;;5047548;28;20354;-72
2023/06/21 16:33:14;;;;;;;;;;;;;;;;;;5044212;28;19933;-72
2023/06/21 16:35:41;;;;;;;;;;;;;;;;;;5045076;28;19978;-71
2023/06/21 16:38:08;;;;;;;;;;;;;;;;;;5048222;28;19981;-71
2023/06/21 16:40:35;;;;;;;;;;;;;;;;;;5045708;28;19971;-71
2023/06/21 16:43:02;;;;;;;;;;;;;;;;;;5047314;28;20011;-71
2023/06/21 16:45:29;;;;;;;;;;;;;;;;;;5042090;28;20011;-71
2023/06/21 16:47:56;;;;;;;;;;;;;;;;;;5044400;28;19979;-71